createdAt,value
2022-08-01T00:00:11.880Z,18.90
2022-08-01T00:02:40.570Z,18.90
2022-08-01T00:05:11.591Z,18.90
2022-08-01T00:07:40.403Z,19.00
2022-08-01T00:10:13.249Z,18.90
2022-08-01T00:12:42.037Z,18.90
2022-08-01T00:15:12.789Z,19.00
2022-08-01T00:17:42.158Z,18.90
2022-08-01T00:20:16.195Z,18.90
2022-08-01T00:22:44.739Z,18.90
2022-08-01T00:25:15.185Z,19.00
2022-08-01T00:27:43.427Z,19.00
2022-08-01T00:30:14.953Z,18.90
2022-08-01T00:32:44.712Z,19.00
2022-08-01T00:35:14.349Z,19.00
2022-08-01T00:37:42.857Z,19.00
2022-08-01T00:40:11.604Z,19.00
2022-08-01T00:42:43.820Z,18.90
2022-08-01T00:45:13.283Z,18.90
2022-08-01T00:47:41.953Z,18.90
2022-08-01T00:50:12.076Z,18.90
2022-08-01T00:52:41.980Z,18.80
2022-08-01T00:55:14.884Z,18.80
2022-08-01T00:58:04.635Z,18.80
2022-08-01T01:00:34.924Z,18.70
2022-08-01T01:06:36.329Z,18.60
2022-08-01T01:09:19.605Z,18.70
2022-08-01T01:11:59.672Z,18.70
2022-08-01T01:14:36.673Z,18.70
2022-08-01T01:17:06.801Z,18.70
2022-08-01T01:19:41.108Z,18.70
2022-08-01T01:22:24.637Z,18.70
2022-08-01T01:25:07.532Z,18.70
2022-08-01T01:27:50.092Z,18.80
2022-08-01T01:30:20.290Z,18.80
2022-08-01T01:32:51.504Z,18.90
2022-08-01T01:35:28.295Z,18.90
2022-08-01T01:38:03.499Z,18.90
2022-08-01T01:40:33.628Z,18.90
2022-08-01T01:43:02.354Z,18.90
2022-08-01T01:45:33.067Z,18.90
2022-08-01T01:48:03.338Z,18.90
2022-08-01T01:50:32.972Z,18.90
2022-08-01T01:53:03.533Z,18.90
2022-08-01T01:55:33.207Z,18.90
2022-08-01T01:58:20.612Z,18.90
2022-08-01T02:00:52.798Z,18.90
2022-08-01T02:03:22.961Z,18.90
2022-08-01T02:05:53.737Z,18.80
2022-08-01T02:08:24.261Z,18.80
2022-08-01T02:11:09.467Z,18.80
2022-08-01T02:13:40.349Z,18.90
2022-08-01T02:16:13.452Z,18.90
2022-08-01T02:18:43.032Z,18.90
2022-08-01T02:21:15.870Z,18.80
2022-08-01T02:23:46.015Z,18.80
2022-08-01T02:26:17.812Z,18.80
2022-08-01T02:28:50.170Z,18.80
2022-08-01T02:31:24.682Z,18.70
2022-08-01T02:33:59.152Z,18.70
2022-08-01T02:36:32.398Z,18.70
2022-08-01T02:39:05.376Z,18.70
2022-08-01T02:41:37.288Z,18.80
2022-08-01T02:44:09.277Z,18.70
2022-08-01T02:46:42.940Z,18.70
2022-08-01T02:49:14.006Z,18.70
2022-08-01T02:51:44.364Z,18.70
2022-08-01T02:54:13.481Z,18.70
2022-08-01T02:56:43.788Z,18.70
2022-08-01T02:59:18.956Z,18.70
2022-08-01T03:01:55.214Z,18.70
2022-08-01T03:04:25.441Z,18.70
2022-08-01T03:06:56.299Z,18.70
2022-08-01T03:09:29.654Z,18.60
2022-08-01T03:11:59.813Z,18.60
2022-08-01T03:14:29.895Z,18.60
2022-08-01T03:17:01.668Z,18.70
2022-08-01T03:19:31.630Z,18.60
2022-08-01T03:22:04.526Z,18.60
2022-08-01T03:24:34.274Z,18.60
2022-08-01T03:27:04.748Z,18.60
2022-08-01T03:29:34.868Z,18.70
2022-08-01T03:32:05.668Z,18.60
2022-08-01T03:34:34.394Z,18.70
2022-08-01T03:37:10.930Z,18.70
2022-08-01T03:39:45.156Z,18.60
2022-08-01T03:42:18.034Z,18.60
2022-08-01T03:44:56.751Z,18.50
2022-08-01T03:47:31.935Z,18.50
2022-08-01T03:50:01.229Z,18.50
2022-08-01T03:52:32.452Z,18.50
2022-08-01T03:55:09.088Z,18.50
2022-08-01T03:57:38.737Z,18.50
2022-08-01T04:00:09.846Z,18.50
2022-08-01T04:02:40.852Z,18.50
2022-08-01T04:05:10.032Z,18.60
2022-08-01T04:07:40.287Z,18.40
2022-08-01T04:10:09.476Z,18.40
2022-08-01T04:12:37.705Z,18.40
2022-08-01T04:15:07.929Z,18.40
2022-08-01T04:17:36.153Z,18.40
2022-08-01T04:20:06.635Z,18.40
2022-08-01T04:22:37.457Z,18.40
2022-08-01T04:25:11.508Z,18.40
2022-08-01T04:27:50.335Z,18.40
2022-08-01T04:30:23.318Z,18.40
2022-08-01T04:32:53.180Z,18.40
2022-08-01T04:36:01.394Z,18.40
2022-08-01T04:38:15.187Z,18.40
2022-08-01T04:40:44.600Z,18.40
2022-08-01T04:43:14.946Z,18.50
2022-08-01T04:45:44.649Z,18.40
2022-08-01T04:48:15.525Z,18.40
2022-08-01T04:50:45.439Z,18.40
2022-08-01T04:53:17.695Z,18.30
2022-08-01T04:55:46.883Z,18.30
2022-08-01T04:58:18.329Z,18.30
2022-08-01T05:00:47.925Z,18.30
2022-08-01T05:03:16.420Z,18.40
2022-08-01T05:05:46.001Z,18.40
2022-08-01T05:08:14.363Z,18.50
2022-08-01T05:10:42.649Z,18.60
2022-08-01T05:13:12.035Z,18.60
2022-08-01T05:15:40.824Z,18.60
2022-08-01T05:18:09.511Z,18.70
2022-08-01T05:20:38.164Z,18.80
2022-08-01T05:23:10.509Z,18.70
2022-08-01T05:25:56.296Z,18.80
2022-08-01T05:28:25.949Z,18.80
2022-08-01T05:30:55.817Z,18.80
2022-08-01T05:33:24.335Z,18.80
2022-08-01T05:35:52.565Z,18.80
2022-08-01T05:38:22.364Z,18.80
2022-08-01T05:40:50.712Z,18.90
2022-08-01T05:43:19.220Z,18.80
2022-08-01T05:45:50.764Z,18.90
2022-08-01T05:48:19.034Z,18.90
2022-08-01T05:50:48.700Z,18.90
2022-08-01T05:53:18.087Z,18.90
2022-08-01T05:55:47.782Z,18.90
2022-08-01T05:58:16.791Z,18.80
2022-08-01T06:00:45.139Z,18.80
2022-08-01T06:03:13.445Z,18.90
2022-08-01T06:05:41.684Z,18.90
2022-08-01T06:08:10.054Z,18.90
2022-08-01T06:10:38.649Z,18.90
2022-08-01T06:13:08.404Z,18.90
2022-08-01T06:15:36.817Z,18.90
2022-08-01T06:18:06.197Z,19.00
2022-08-01T06:20:34.493Z,18.90
2022-08-01T06:23:14.700Z,18.90
2022-08-01T06:25:53.953Z,18.90
2022-08-01T06:28:24.368Z,18.80
2022-08-01T06:30:55.719Z,18.90
2022-08-01T06:33:24.046Z,18.90
2022-08-01T06:35:52.926Z,18.90
2022-08-01T06:38:23.864Z,18.90
2022-08-01T06:40:52.576Z,19.00
2022-08-01T06:43:20.847Z,18.90
2022-08-01T06:45:50.902Z,18.90
2022-08-01T06:48:19.225Z,19.00
2022-08-01T06:50:47.596Z,19.00
2022-08-01T06:53:16.041Z,19.00
2022-08-01T06:55:44.345Z,19.00
2022-08-01T06:58:12.731Z,19.10
2022-08-01T07:00:43.360Z,19.10
2022-08-01T07:03:13.192Z,19.30
2022-08-01T07:05:41.512Z,19.50
2022-08-01T07:08:09.847Z,19.80
2022-08-01T07:10:38.127Z,20.20
2022-08-01T07:13:06.393Z,20.50
2022-08-01T07:15:34.675Z,20.90
2022-08-01T07:18:04.944Z,21.30
2022-08-01T07:20:41.274Z,21.60
2022-08-01T07:23:22.533Z,21.60
2022-08-01T07:25:55.920Z,21.50
2022-08-01T07:28:26.477Z,21.60
2022-08-01T07:30:58.187Z,21.60
2022-08-01T07:33:26.884Z,21.50
2022-08-01T07:36:16.969Z,21.40
2022-08-01T07:38:45.651Z,21.30
2022-08-01T07:41:14.798Z,21.30
2022-08-01T07:43:51.796Z,21.10
2022-08-01T07:46:24.737Z,20.80
2022-08-01T07:48:53.365Z,20.70
2022-08-01T07:51:23.366Z,20.60
2022-08-01T07:53:51.658Z,20.50
2022-08-01T07:56:20.560Z,20.40
2022-08-01T07:58:49.366Z,20.30
2022-08-01T08:01:19.090Z,20.30
2022-08-01T08:03:47.333Z,20.30
2022-08-01T08:06:16.066Z,20.20
2022-08-01T08:08:45.812Z,20.10
2022-08-01T08:11:14.166Z,20.20
2022-08-01T08:13:42.602Z,20.30
2022-08-01T08:16:10.979Z,20.30
2022-08-01T08:18:39.269Z,20.00
2022-08-01T08:21:07.511Z,19.80
2022-08-01T08:23:52.844Z,19.60
2022-08-01T08:26:24.412Z,19.60
2022-08-01T08:28:52.784Z,19.50
2022-08-01T08:31:50.790Z,19.40
2022-08-01T08:34:09.709Z,19.50
2022-08-01T08:36:38.103Z,19.50
2022-08-01T08:39:07.468Z,19.50
2022-08-01T08:41:38.351Z,19.50
2022-08-01T08:44:09.980Z,19.70
2022-08-01T08:46:44.778Z,19.70
2022-08-01T08:49:14.822Z,19.80
2022-08-01T08:51:44.873Z,19.70
2022-08-01T08:54:15.009Z,19.50
2022-08-01T08:56:47.307Z,19.40
2022-08-01T08:59:16.618Z,19.50
2022-08-01T09:01:45.282Z,19.50
2022-08-01T09:04:14.421Z,19.60
2022-08-01T09:06:43.396Z,19.70
2022-08-01T09:09:12.333Z,19.90
2022-08-01T09:11:41.181Z,20.40
2022-08-01T09:14:14.812Z,21.20
2022-08-01T09:16:48.716Z,22.00
2022-08-01T09:19:40.387Z,22.40
2022-08-01T09:22:11.682Z,22.50
2022-08-01T09:24:40.893Z,22.50
2022-08-01T09:27:21.857Z,22.70
2022-08-01T09:30:00.737Z,22.80
2022-08-01T09:32:35.149Z,22.90
2022-08-01T09:35:30.060Z,23.40
2022-08-01T09:38:16.248Z,23.50
2022-08-01T09:40:53.281Z,23.40
2022-08-01T09:43:23.314Z,23.40
2022-08-01T09:45:53.995Z,23.40
2022-08-01T09:48:28.700Z,23.10
2022-08-01T09:51:04.722Z,22.60
2022-08-01T09:53:52.361Z,22.80
2022-08-01T09:56:23.326Z,23.40
2022-08-01T09:59:02.808Z,23.50
2022-08-01T10:01:46.689Z,23.50
2022-08-01T10:04:18.399Z,23.10
2022-08-01T10:06:50.878Z,23.50
2022-08-01T10:09:39.751Z,23.80
2022-08-01T10:12:15.113Z,24.00
2022-08-01T10:14:46.268Z,24.20
2022-08-01T10:17:18.494Z,23.90
2022-08-01T10:19:51.547Z,24.10
2022-08-01T10:22:22.098Z,24.60
2022-08-01T10:24:52.111Z,24.50
2022-08-01T10:27:35.804Z,25.00
2022-08-01T10:30:19.726Z,25.80
2022-08-01T10:32:55.000Z,26.50
2022-08-01T10:35:46.592Z,26.90
2022-08-01T10:38:14.119Z,26.90
2022-08-01T10:40:44.157Z,26.90
2022-08-01T10:43:12.914Z,27.00
2022-08-01T10:45:42.298Z,26.60
2022-08-01T10:48:20.644Z,26.10
2022-08-01T10:50:53.780Z,25.90
2022-08-01T10:53:31.239Z,25.60
2022-08-01T10:56:13.152Z,25.30
2022-08-01T10:58:45.614Z,25.30
2022-08-01T11:01:33.326Z,25.00
2022-08-01T11:04:08.413Z,24.90
2022-08-01T11:06:54.892Z,24.80
2022-08-01T11:09:37.366Z,24.80
2022-08-01T11:12:12.826Z,24.60
2022-08-01T11:15:14.628Z,24.50
2022-08-01T11:17:48.871Z,24.40
2022-08-01T11:20:20.512Z,24.40
2022-08-01T11:23:26.100Z,24.30
2022-08-01T11:26:29.881Z,24.20
2022-08-01T11:29:22.108Z,24.20
2022-08-01T11:31:51.291Z,24.10
2022-08-01T11:34:20.060Z,24.00
2022-08-01T11:36:58.730Z,23.90
2022-08-01T11:39:28.204Z,23.80
2022-08-01T11:42:22.099Z,23.60
2022-08-01T11:44:52.363Z,23.50
2022-08-01T11:47:41.311Z,23.50
2022-08-01T11:50:33.237Z,23.70
2022-08-01T11:53:05.099Z,23.50
2022-08-01T11:55:35.809Z,23.40
2022-08-01T11:58:06.901Z,23.40
2022-08-01T12:00:38.201Z,23.40
2022-08-01T12:03:19.161Z,23.60
2022-08-01T12:06:01.732Z,23.70
2022-08-01T12:08:33.839Z,23.70
2022-08-01T12:11:03.325Z,23.70
2022-08-01T12:13:44.154Z,23.80
2022-08-01T12:16:13.322Z,23.80
2022-08-01T12:18:42.454Z,23.80
2022-08-01T12:21:11.152Z,23.80
2022-08-01T12:23:46.405Z,24.10
2022-08-01T12:26:28.599Z,24.10
2022-08-01T12:29:00.436Z,24.20
2022-08-01T12:31:35.230Z,24.50
2022-08-01T12:34:27.546Z,24.80
2022-08-01T12:36:57.798Z,25.00
2022-08-01T12:39:40.106Z,24.70
2022-08-01T12:42:11.625Z,24.60
2022-08-01T12:44:41.047Z,24.90
2022-08-01T12:47:10.365Z,25.20
2022-08-01T12:49:39.706Z,25.60
2022-08-01T12:52:13.122Z,25.70
2022-08-01T12:55:10.362Z,25.70
2022-08-01T12:57:40.493Z,25.70
2022-08-01T13:00:11.843Z,25.30
2022-08-01T13:02:41.032Z,25.20
2022-08-01T13:05:11.192Z,24.70
2022-08-01T13:07:46.042Z,24.20
2022-08-01T13:10:26.117Z,23.70
2022-08-01T13:12:56.174Z,23.30
2022-08-01T13:15:33.012Z,23.20
2022-08-01T13:18:03.101Z,23.00
2022-08-01T13:20:34.118Z,22.90
2022-08-01T13:23:21.454Z,22.70
2022-08-01T13:26:06.925Z,22.30
2022-08-01T13:28:37.763Z,22.30
2022-08-01T13:31:07.417Z,22.00
2022-08-01T13:33:43.837Z,21.90
2022-08-01T13:36:12.277Z,22.20
2022-08-01T13:39:00.696Z,22.40
2022-08-01T13:41:30.322Z,22.70
2022-08-01T13:43:59.580Z,23.00
2022-08-01T13:46:29.529Z,23.00
2022-08-01T13:48:58.026Z,23.10
2022-08-01T13:51:33.537Z,23.00
2022-08-01T13:54:02.533Z,23.10
2022-08-01T13:56:35.544Z,23.20
2022-08-01T13:59:03.974Z,23.10
2022-08-01T14:01:34.579Z,23.30
2022-08-01T14:04:03.436Z,23.40
2022-08-01T14:06:31.645Z,23.50
2022-08-01T14:08:59.992Z,23.40
2022-08-01T14:11:37.082Z,23.50
2022-08-01T14:14:08.399Z,23.60
2022-08-01T14:16:38.384Z,23.50
2022-08-01T14:19:06.828Z,23.40
2022-08-01T14:21:35.118Z,23.30
2022-08-01T14:24:03.764Z,23.30
2022-08-01T14:26:33.503Z,23.30
2022-08-01T14:29:05.222Z,23.30
2022-08-01T14:31:34.542Z,23.40
2022-08-01T14:34:03.466Z,23.20
2022-08-01T14:36:38.162Z,23.30
2022-08-01T14:39:07.175Z,23.50
2022-08-01T14:41:45.548Z,23.50
2022-08-01T14:44:15.062Z,23.60
2022-08-01T14:46:57.747Z,23.60
2022-08-01T14:49:27.200Z,23.50
2022-08-01T14:51:55.552Z,23.50
2022-08-01T14:54:26.774Z,23.50
2022-08-01T14:56:59.426Z,23.40
2022-08-01T14:59:27.692Z,23.50
2022-08-01T15:01:56.461Z,23.50
2022-08-01T15:04:26.161Z,23.50
2022-08-01T15:06:54.632Z,23.30
2022-08-01T15:09:25.895Z,23.40
2022-08-01T15:11:54.234Z,23.30
2022-08-01T15:14:41.040Z,23.40
2022-08-01T15:17:09.442Z,23.50
2022-08-01T15:19:41.760Z,23.50
2022-08-01T15:22:11.291Z,23.30
2022-08-01T15:24:39.789Z,23.50
2022-08-01T15:27:08.524Z,23.30
2022-08-01T15:29:42.713Z,23.20
2022-08-01T15:32:11.618Z,23.20
2022-08-01T15:34:41.187Z,23.30
2022-08-01T15:37:12.462Z,23.30
2022-08-01T15:39:41.317Z,23.40
2022-08-01T15:42:11.559Z,23.30
2022-08-01T15:44:41.528Z,23.30
2022-08-01T15:47:10.719Z,23.40
2022-08-01T15:49:41.312Z,23.30
2022-08-01T15:52:22.009Z,23.40
2022-08-01T15:54:51.555Z,23.40
2022-08-01T15:57:20.037Z,23.30
2022-08-01T15:59:49.756Z,23.20
2022-08-01T16:02:24.461Z,23.20
2022-08-01T16:04:52.854Z,23.20
2022-08-01T16:07:21.241Z,23.20
2022-08-01T16:09:52.539Z,23.10
2022-08-01T16:12:20.870Z,23.10
2022-08-01T16:14:51.310Z,23.10
2022-08-01T16:17:19.570Z,23.00
2022-08-01T16:19:48.213Z,23.00
2022-08-01T16:22:16.439Z,23.00
2022-08-01T16:24:45.014Z,22.80
2022-08-01T16:27:13.720Z,22.70
2022-08-01T16:29:42.235Z,22.70
2022-08-01T16:32:27.557Z,22.60
2022-08-01T16:35:00.288Z,22.50
2022-08-01T16:37:30.039Z,22.40
2022-08-01T16:39:58.556Z,22.30
2022-08-01T16:42:27.635Z,22.10
2022-08-01T16:44:56.845Z,22.10
2022-08-01T16:47:26.836Z,22.10
2022-08-01T16:49:55.230Z,22.10
2022-08-01T16:52:23.745Z,22.10
2022-08-01T16:54:58.083Z,22.10
2022-08-01T16:57:26.389Z,22.10
2022-08-01T16:59:54.671Z,22.00
2022-08-01T17:02:26.572Z,22.00
2022-08-01T17:04:54.927Z,22.00
2022-08-01T17:07:23.260Z,22.00
2022-08-01T17:09:51.499Z,22.00
2022-08-01T17:12:22.150Z,21.90
2022-08-01T17:14:51.386Z,21.90
2022-08-01T17:17:19.895Z,21.90
2022-08-01T17:19:49.598Z,21.80
2022-08-01T17:22:18.001Z,21.80
2022-08-01T17:24:47.512Z,21.90
2022-08-01T17:27:16.487Z,21.80
2022-08-01T17:29:45.165Z,21.80
2022-08-01T17:32:14.690Z,21.70
2022-08-01T17:34:43.672Z,21.60
2022-08-01T17:37:13.613Z,21.70
2022-08-01T17:39:42.964Z,21.70
2022-08-01T17:42:12.511Z,21.60
2022-08-01T17:44:41.514Z,21.70
2022-08-01T17:47:10.436Z,21.60
2022-08-01T17:49:54.369Z,21.50
2022-08-01T17:52:26.158Z,21.60
2022-08-01T17:54:58.409Z,21.40
2022-08-01T17:57:27.297Z,21.50
2022-08-01T17:59:56.425Z,21.50
2022-08-01T18:02:24.865Z,21.50
2022-08-01T18:04:53.346Z,21.40
2022-08-01T18:08:01.808Z,21.40
2022-08-01T18:10:12.922Z,21.30
2022-08-01T18:12:41.754Z,21.30
2022-08-01T18:15:10.778Z,21.20
2022-08-01T18:17:43.728Z,21.10
2022-08-01T18:20:13.498Z,21.20
2022-08-01T18:22:43.623Z,21.10
2022-08-01T18:25:12.342Z,21.10
2022-08-01T18:28:16.478Z,21.00
2022-08-01T18:30:29.431Z,20.90
2022-08-01T18:32:57.984Z,20.80
2022-08-01T18:35:51.468Z,20.80
2022-08-01T18:38:17.402Z,20.70
2022-08-01T18:40:45.957Z,20.70
2022-08-01T18:43:14.845Z,20.60
2022-08-01T18:45:43.311Z,20.60
2022-08-01T18:48:11.999Z,20.50
2022-08-01T18:50:40.643Z,20.40
2022-08-01T18:53:09.077Z,20.30
2022-08-01T18:55:38.682Z,20.20
2022-08-01T18:58:06.992Z,20.20
2022-08-01T19:00:35.180Z,20.10
2022-08-01T19:03:04.237Z,20.00
2022-08-01T19:05:35.027Z,20.00
2022-08-01T19:08:07.589Z,20.00
2022-08-01T19:10:37.920Z,19.90
2022-08-01T19:13:07.722Z,19.80
2022-08-01T19:15:36.589Z,19.80
2022-08-01T19:18:05.443Z,19.70
2022-08-01T19:20:37.664Z,19.60
2022-08-01T19:23:25.926Z,19.60
2022-08-01T19:25:59.720Z,19.50
2022-08-01T19:28:29.574Z,19.20
2022-08-01T19:31:02.344Z,19.00
2022-08-01T19:33:33.303Z,18.70
2022-08-01T19:36:02.810Z,18.60
2022-08-01T19:38:32.766Z,18.00
2022-08-01T19:41:03.587Z,17.80
2022-08-01T19:43:38.441Z,17.80
2022-08-01T19:46:08.734Z,17.90
2022-08-01T19:48:54.096Z,17.40
2022-08-01T19:51:33.754Z,17.50
2022-08-01T19:54:07.381Z,17.50
2022-08-01T19:56:44.623Z,17.80
2022-08-01T19:59:17.007Z,17.70
2022-08-01T20:01:46.322Z,17.70
2022-08-01T20:04:16.520Z,17.30
2022-08-01T20:06:45.537Z,17.10
2022-08-01T20:09:14.907Z,17.00
2022-08-01T20:11:47.620Z,17.20
2022-08-01T20:14:21.995Z,17.40
2022-08-01T20:16:52.127Z,17.10
2022-08-01T20:19:22.192Z,16.90
2022-08-01T20:22:02.624Z,17.00
2022-08-01T20:24:38.152Z,17.00
2022-08-01T20:27:10.862Z,17.20
2022-08-01T20:29:39.682Z,17.10
2022-08-01T20:32:08.539Z,17.20
2022-08-01T20:34:39.212Z,17.20
2022-08-01T20:37:09.254Z,17.20
2022-08-01T20:39:43.937Z,17.20
2022-08-01T20:42:14.847Z,17.20
2022-08-01T20:44:45.313Z,17.20
2022-08-01T20:47:15.419Z,17.20
2022-08-01T20:49:45.386Z,17.20
2022-08-01T20:52:13.685Z,17.10
2022-08-01T20:54:43.844Z,16.90
2022-08-01T20:57:21.032Z,16.90
2022-08-01T20:59:57.444Z,16.90
2022-08-01T21:02:51.441Z,16.90
2022-08-01T21:05:27.802Z,16.80
2022-08-01T21:08:11.204Z,16.70
2022-08-01T21:10:56.710Z,16.80
2022-08-01T21:13:35.943Z,16.70
2022-08-01T21:16:22.505Z,16.70
2022-08-01T21:19:19.060Z,16.50
2022-08-01T21:21:51.936Z,16.50
2022-08-01T21:24:23.574Z,16.40
2022-08-01T21:26:54.613Z,16.50
2022-08-01T21:29:26.510Z,16.60
2022-08-01T21:32:12.438Z,16.70
2022-08-01T21:34:41.996Z,16.70
2022-08-01T21:37:11.357Z,16.70
2022-08-01T21:39:41.408Z,16.70
2022-08-01T21:42:11.294Z,16.60
2022-08-01T21:44:46.007Z,16.50
2022-08-01T21:47:15.089Z,16.20
2022-08-01T21:49:43.470Z,16.10
2022-08-01T21:52:16.382Z,16.20
2022-08-01T21:54:57.797Z,16.10
2022-08-01T21:57:43.629Z,16.20
2022-08-01T22:00:20.848Z,16.30
2022-08-01T22:03:01.898Z,16.40
2022-08-01T22:05:49.443Z,16.30
2022-08-01T22:08:25.713Z,16.30
2022-08-01T22:11:00.047Z,16.20
2022-08-01T22:13:29.048Z,16.20
2022-08-01T22:15:59.906Z,16.20
2022-08-01T22:18:28.934Z,16.20
2022-08-01T22:20:57.255Z,16.00
2022-08-01T22:23:25.733Z,15.90
2022-08-01T22:25:55.316Z,16.00
2022-08-01T22:28:24.263Z,16.00
2022-08-01T22:30:54.555Z,16.00
2022-08-01T22:33:26.210Z,16.00
2022-08-01T22:35:57.008Z,16.10
2022-08-01T22:38:25.936Z,16.10
2022-08-01T22:40:59.517Z,16.20
2022-08-01T22:43:36.359Z,16.20
2022-08-01T22:46:25.153Z,16.00
2022-08-01T22:49:01.928Z,16.00
2022-08-01T22:51:43.906Z,16.10
2022-08-01T22:54:29.967Z,16.00
2022-08-01T22:57:01.814Z,16.10
2022-08-01T22:59:46.733Z,16.00
2022-08-01T23:02:17.624Z,16.00
2022-08-01T23:04:49.450Z,16.00
2022-08-01T23:07:21.968Z,16.00
2022-08-01T23:09:54.345Z,15.80
2022-08-01T23:12:25.976Z,15.80
2022-08-01T23:14:56.732Z,15.80
2022-08-01T23:17:28.784Z,15.80
2022-08-01T23:20:04.377Z,15.90
2022-08-01T23:22:34.242Z,15.90
2022-08-01T23:25:06.443Z,15.50
2022-08-01T23:27:57.835Z,15.40
2022-08-01T23:30:27.655Z,15.20
2022-08-01T23:32:56.221Z,15.10
2022-08-01T23:35:26.219Z,15.20
2022-08-01T23:38:01.983Z,15.30
2022-08-01T23:40:31.722Z,15.40
2022-08-01T23:43:00.596Z,15.40
2022-08-01T23:46:02.709Z,15.40
2022-08-01T23:48:17.805Z,15.30
2022-08-01T23:50:47.633Z,15.20
2022-08-01T23:53:16.240Z,15.10
2022-08-01T23:55:45.473Z,14.90
2022-08-01T23:58:14.393Z,15.00
